Time;durP1;ratioP1;P1;durP2;ratioP2;P2;SDS_P1;SDS_P2;PMS_P1;PMS_P2;Temp;Humidity;BMP_temperature;BMP_pressure;BME280_temperature;BME280_humidity;BME280_pressure;Samples;Min_cycle;Max_cycle;Signal;HPM_P1;HPM_P2
2022/05/12 00:02:11;;;;;;;3.90;2.67;;;19.40;92.00;;;;;;4991661;28;20261;-73
2022/05/12 00:04:41;;;;;;;5.28;3.13;;;19.50;92.10;;;;;;4992325;28;20205;-73
2022/05/12 00:07:09;;;;;;;2.97;2.78;;;19.50;91.50;;;;;;4990989;28;20221;-73
2022/05/12 00:09:37;;;;;;;3.63;2.28;;;19.30;91.50;;;;;;4992603;28;20265;-73
2022/05/12 00:12:05;;;;;;;3.45;3.15;;;19.30;92.50;;;;;;4991423;28;20202;-73
2022/05/12 00:14:34;;;;;;;2.83;2.63;;;19.30;92.00;;;;;;4992351;28;20237;-73
2022/05/12 00:17:02;;;;;;;4.47;2.90;;;19.20;91.50;;;;;;4991606;28;20230;-73
2022/05/12 00:19:30;;;;;;;3.20;2.90;;;19.20;91.80;;;;;;4991950;28;20202;-73
2022/05/12 00:21:59;;;;;;;4.28;3.00;;;19.10;92.20;;;;;;4986328;28;20272;-73
2022/05/12 00:24:27;;;;;;;5.00;2.78;;;19.10;92.70;;;;;;4991919;28;20616;-72
2022/05/12 00:26:55;;;;;;;2.90;2.60;;;19.10;93.00;;;;;;4992092;28;20222;-73
2022/05/12 00:29:23;;;;;;;3.03;2.78;;;19.10;92.90;;;;;;4992177;28;20206;-73
2022/05/12 00:31:51;;;;;;;3.03;2.67;;;19.10;93.00;;;;;;4991928;28;20749;-73
2022/05/12 00:34:21;;;;;;;6.60;4.35;;;19.00;93.40;;;;;;4991559;28;20224;-73
2022/05/12 00:36:49;;;;;;;3.92;3.42;;;19.00;92.90;;;;;;4985335;28;20300;-73
2022/05/12 00:39:18;;;;;;;4.15;3.10;;;19.10;93.10;;;;;;4985958;28;20233;-73
2022/05/12 00:41:46;;;;;;;4.22;2.90;;;19.00;93.50;;;;;;4991694;28;20208;-73
2022/05/12 00:44:16;;;;;;;4.60;2.72;;;18.80;94.10;;;;;;4985204;28;20257;-73
2022/05/12 00:46:49;;;;;;;4.70;2.67;;;18.70;93.70;;;;;;4985873;28;20332;-72
2022/05/12 00:49:22;;;;;;;2.67;2.40;;;18.70;94.40;;;;;;4991501;28;20224;-73
2022/05/12 00:51:53;;;;;;;3.47;2.13;;;18.70;94.30;;;;;;4991424;28;20210;-72
2022/05/12 00:54:27;;;;;;;3.25;2.30;;;18.70;94.30;;;;;;4991230;28;20260;-72
2022/05/12 00:56:55;;;;;;;3.05;2.50;;;18.70;95.10;;;;;;4991673;28;20652;-73
2022/05/12 00:59:32;;;;;;;2.15;2.05;;;18.60;94.50;;;;;;4991791;28;20210;-73
2022/05/12 01:02:02;;;;;;;2.70;2.15;;;18.70;95.20;;;;;;4990746;28;20579;-75
2022/05/12 01:04:32;;;;;;;2.20;2.00;;;18.70;94.80;;;;;;4991627;28;20206;-73
2022/05/12 01:07:01;;;;;;;4.82;2.45;;;18.70;95.40;;;;;;4991579;28;20261;-75
2022/05/12 01:09:32;;;;;;;2.15;1.70;;;18.60;96.00;;;;;;4991601;28;20209;-73
2022/05/12 01:12:01;;;;;;;6.35;2.33;;;18.60;95.50;;;;;;4990719;28;20212;-75
2022/05/12 01:14:29;;;;;;;2.35;1.77;;;18.60;96.50;;;;;;4991352;28;20264;-75
2022/05/12 01:16:58;;;;;;;1.65;1.55;;;18.50;96.40;;;;;;4991414;28;20715;-75
2022/05/12 01:19:29;;;;;;;1.85;1.58;;;18.50;96.80;;;;;;4991311;28;20674;-74
2022/05/12 01:21:59;;;;;;;1.60;1.50;;;18.60;97.40;;;;;;4985801;28;20206;-76
2022/05/12 01:24:33;;;;;;;4.85;1.80;;;18.60;97.70;;;;;;4991274;28;20257;-74
2022/05/12 01:27:18;;;;;;;4.28;1.85;;;18.70;97.80;;;;;;4991930;28;20221;-73
2022/05/12 01:29:48;;;;;;;2.83;1.75;;;18.60;97.50;;;;;;4992024;28;20224;-74
2022/05/12 01:32:17;;;;;;;3.83;1.80;;;18.60;98.00;;;;;;4994547;28;20210;-73
2022/05/12 01:34:45;;;;;;;2.17;1.70;;;18.50;98.30;;;;;;4995135;28;20206;-73
2022/05/12 01:37:13;;;;;;;1.63;1.52;;;18.60;98.90;;;;;;4994653;28;20279;-74
2022/05/12 01:39:43;;;;;;;2.15;1.60;;;18.60;98.70;;;;;;4995351;28;20209;-74
2022/05/12 01:42:12;;;;;;;1.63;1.30;;;18.60;98.80;;;;;;4994457;28;20210;-73
2022/05/12 01:44:42;;;;;;;2.17;1.48;;;18.60;99.10;;;;;;4994981;28;20325;-73
2022/05/12 01:47:11;;;;;;;2.10;1.30;;;18.60;99.50;;;;;;4994974;28;20276;-74
2022/05/12 01:49:39;;;;;;;1.95;1.70;;;18.60;99.40;;;;;;4989299;28;20206;-74
2022/05/12 01:52:10;;;;;;;1.58;1.48;;;18.60;99.80;;;;;;4993897;28;20746;-74
2022/05/12 01:54:38;;;;;;;2.58;1.70;;;18.60;99.90;;;;;;4994708;28;20613;-75
2022/05/12 01:57:07;;;;;;;2.05;1.50;;;18.60;99.90;;;;;;4994780;28;20253;-74
2022/05/12 01:59:35;;;;;;;4.25;1.92;;;18.70;99.90;;;;;;4994914;28;20202;-74
2022/05/12 02:02:04;;;;;;;2.15;1.63;;;18.60;99.90;;;;;;4993875;28;20690;-72
2022/05/12 02:04:32;;;;;;;5.40;1.75;;;18.60;99.90;;;;;;4994481;28;20778;-73
2022/05/12 02:06:59;;;;;;;4.53;1.65;;;18.50;99.90;;;;;;4994719;28;20308;-74
2022/05/12 02:09:27;;;;;;;1.50;1.40;;;18.50;99.90;;;;;;4994819;28;20233;-74
2022/05/12 02:11:56;;;;;;;2.58;1.23;;;18.50;99.90;;;;;;4994159;28;20281;-71
2022/05/12 02:14:25;;;;;;;2.75;1.40;;;18.40;99.90;;;;;;4994633;28;20210;-73
2022/05/12 02:16:53;;;;;;;4.32;1.40;;;18.40;99.90;;;;;;4994350;28;20645;-74
2022/05/12 02:19:21;;;;;;;2.78;1.35;;;18.40;99.90;;;;;;4994092;28;20240;-72
2022/05/12 02:21:49;;;;;;;1.90;1.50;;;18.30;99.90;;;;;;4989243;28;20237;-73
2022/05/12 02:24:17;;;;;;;3.00;1.58;;;18.30;99.90;;;;;;4988969;28;20680;-73
2022/05/12 02:26:45;;;;;;;2.03;1.58;;;18.20;99.90;;;;;;4994295;28;20226;-73
2022/05/12 02:29:12;;;;;;;1.70;1.30;;;18.20;99.90;;;;;;4994268;28;20253;-74
2022/05/12 02:31:42;;;;;;;3.03;1.50;;;18.20;99.90;;;;;;4994176;28;20213;-73
2022/05/12 02:34:10;;;;;;;2.35;1.10;;;18.20;99.90;;;;;;4993480;28;20634;-72
2022/05/12 02:36:38;;;;;;;2.65;1.40;;;18.10;99.90;;;;;;4993817;28;20375;-73
2022/05/12 02:39:06;;;;;;;1.45;1.25;;;18.10;99.90;;;;;;4993555;28;20225;-73
2022/05/12 02:41:33;;;;;;;3.00;1.50;;;18.10;99.90;;;;;;4994184;28;20631;-73
2022/05/12 02:44:01;;;;;;;2.28;1.33;;;18.10;99.90;;;;;;4993086;28;20757;-72
2022/05/12 02:46:29;;;;;;;4.05;1.23;;;18.10;99.90;;;;;;4994176;28;20284;-74
2022/05/12 02:48:58;;;;;;;1.88;1.35;;;18.00;99.90;;;;;;4993630;28;20201;-74
2022/05/12 02:51:26;;;;;;;3.92;1.77;;;18.00;99.90;;;;;;4990752;28;20225;-73
2022/05/12 02:53:54;;;;;;;5.00;1.60;;;17.90;99.90;;;;;;4992772;28;20240;-73
2022/05/12 02:56:22;;;;;;;5.45;1.77;;;17.80;99.90;;;;;;4996582;28;20265;-72
2022/05/12 02:58:50;;;;;;;1.98;1.42;;;17.80;99.90;;;;;;4993816;28;20260;-72
2022/05/12 03:01:18;;;;;;;2.95;1.67;;;17.80;99.90;;;;;;4993718;28;20711;-75
2022/05/12 03:03:46;;;;;;;4.53;2.08;;;17.70;99.90;;;;;;4992761;28;20229;-72
2022/05/12 03:06:15;;;;;;;2.40;1.60;;;17.60;99.90;;;;;;4993550;28;20245;-73
2022/05/12 03:08:44;;;;;;;3.17;1.70;;;17.50;99.90;;;;;;4993554;28;20205;-73
2022/05/12 03:11:12;;;;;;;4.30;2.08;;;17.50;99.90;;;;;;4993598;28;20268;-72
2022/05/12 03:13:40;;;;;;;6.88;2.25;;;17.50;99.90;;;;;;4992923;28;20290;-72
2022/05/12 03:16:08;;;;;;;6.60;2.28;;;17.40;99.90;;;;;;4993537;28;20222;-76
2022/05/12 03:18:36;;;;;;;3.88;1.70;;;17.40;99.90;;;;;;4993628;28;20604;-72
2022/05/12 03:21:04;;;;;;;4.38;1.90;;;17.30;99.90;;;;;;4992979;28;20236;-74
2022/05/12 03:23:33;;;;;;;5.95;2.03;;;17.30;99.90;;;;;;4992271;28;20310;-73
2022/05/12 03:26:01;;;;;;;3.60;1.70;;;17.30;99.90;;;;;;4995741;28;20273;-72
2022/05/12 03:28:30;;;;;;;4.90;2.03;;;17.30;99.90;;;;;;4993090;28;20240;-76
2022/05/12 03:30:58;;;;;;;3.08;1.77;;;17.30;99.90;;;;;;4993190;28;20210;-72
2022/05/12 03:33:26;;;;;;;5.88;1.88;;;17.30;99.90;;;;;;4992446;28;20305;-72
2022/05/12 03:35:54;;;;;;;4.78;1.70;;;17.40;99.90;;;;;;4992443;28;20324;-73
2022/05/12 03:38:22;;;;;;;3.22;1.50;;;17.60;99.90;;;;;;4993346;28;20333;-73
2022/05/12 03:40:51;;;;;;;3.08;1.63;;;17.50;99.90;;;;;;4993057;28;20229;-74
2022/05/12 03:46:02;;;;;;;5.82;1.88;;;17.40;99.90;;;;;;4991828;28;20233;-74
2022/05/12 03:48:30;;;;;;;3.55;1.80;;;17.30;99.90;;;;;;4992255;28;20694;-73
2022/05/12 03:50:58;;;;;;;3.10;1.75;;;17.30;99.90;;;;;;4989538;28;20241;-73
2022/05/12 03:53:26;;;;;;;3.47;1.73;;;17.30;99.90;;;;;;4975335;28;20322;-78
2022/05/12 03:55:56;;;;;;;3.75;1.83;;;17.30;99.90;;;;;;4972570;28;20349;-74
2022/05/12 03:58:24;;;;;;;5.43;2.13;;;17.20;99.90;;;;;;4978716;28;20293;-73
2022/05/12 04:00:53;;;;;;;3.45;1.60;;;17.20;99.90;;;;;;4973759;28;20856;-72
2022/05/12 04:03:21;;;;;;;4.05;1.77;;;17.30;99.90;;;;;;4973972;28;20210;-73
2022/05/12 04:05:49;;;;;;;3.70;2.08;;;17.30;99.90;;;;;;4977873;28;20352;-73
2022/05/12 04:08:17;;;;;;;4.78;1.55;;;17.40;99.90;;;;;;4979830;28;20233;-72
2022/05/12 04:10:45;;;;;;;4.22;1.90;;;17.40;99.90;;;;;;4978097;28;20317;-75
2022/05/12 04:13:16;;;;;;;4.50;1.77;;;17.40;99.90;;;;;;4970917;28;20251;-74
2022/05/12 04:15:44;;;;;;;2.10;1.70;;;17.30;99.90;;;;;;4976807;28;20244;-73
2022/05/12 04:18:12;;;;;;;2.95;1.70;;;17.40;99.90;;;;;;4978989;28;21032;-74
2022/05/12 04:20:40;;;;;;;3.67;1.88;;;17.60;99.90;;;;;;4976232;28;20194;-75
2022/05/12 04:23:09;;;;;;;5.68;2.03;;;17.70;99.90;;;;;;4971965;28;20561;-74
2022/05/12 04:25:37;;;;;;;4.53;1.50;;;17.70;99.90;;;;;;4974112;28;20697;-78
2022/05/12 04:28:05;;;;;;;2.40;1.58;;;17.80;99.90;;;;;;4977786;28;20269;-74
2022/05/12 04:30:36;;;;;;;3.38;1.58;;;17.90;99.90;;;;;;4977354;28;20218;-74
2022/05/12 04:35:46;;;;;;;7.20;1.65;;;17.90;99.90;;;;;;4973090;28;20672;-73
2022/05/12 04:38:13;;;;;;;6.20;2.40;;;17.90;99.90;;;;;;4972753;28;20300;-73
2022/05/12 04:40:42;;;;;;;5.13;2.45;;;17.80;99.90;;;;;;4972673;28;20216;-77
2022/05/12 04:43:09;;;;;;;4.28;1.73;;;17.80;99.90;;;;;;4972467;28;20267;-74
2022/05/12 04:45:40;;;;;;;5.18;2.00;;;17.90;99.90;;;;;;4978150;28;20221;-74
2022/05/12 04:48:09;;;;;;;3.80;1.88;;;17.90;99.90;;;;;;4977978;28;20209;-74
2022/05/12 04:50:40;;;;;;;2.78;1.58;;;18.00;99.90;;;;;;4974052;28;20214;-75
2022/05/12 04:53:09;;;;;;;4.85;1.80;;;18.10;99.90;;;;;;4971351;28;20210;-75
2022/05/12 04:55:38;;;;;;;3.03;1.95;;;18.20;99.90;;;;;;4971018;28;20217;-72
2022/05/12 04:58:06;;;;;;;2.10;1.73;;;18.20;99.90;;;;;;4975195;28;20300;-74
2022/05/12 05:00:37;;;;;;;5.45;1.60;;;18.20;99.90;;;;;;4977213;28;20201;-74
2022/05/12 05:03:08;;;;;;;3.25;1.70;;;18.20;99.90;;;;;;4973178;28;20202;-75
2022/05/12 05:05:36;;;;;;;2.38;1.92;;;18.10;99.90;;;;;;4975500;28;20706;-75
2022/05/12 05:08:06;;;;;;;2.22;1.38;;;18.10;99.90;;;;;;4978811;28;20214;-73
2022/05/12 05:10:35;;;;;;;4.28;1.63;;;18.20;99.90;;;;;;4976876;28;20264;-73
2022/05/12 05:13:03;;;;;;;4.82;1.48;;;18.30;99.90;;;;;;4973389;28;20917;-74
2022/05/12 05:15:31;;;;;;;7.18;1.80;;;18.20;99.90;;;;;;4977376;28;20229;-75
2022/05/12 05:18:09;;;;;;;2.42;1.40;;;18.20;99.90;;;;;;4970798;28;20877;-74
2022/05/12 05:20:38;;;;;;;4.47;1.90;;;18.30;99.90;;;;;;4971537;28;20301;-77
2022/05/12 05:23:06;;;;;;;2.83;1.30;;;18.40;99.90;;;;;;4968054;28;20206;-78
2022/05/12 05:25:34;;;;;;;4.30;1.45;;;18.50;99.90;;;;;;4975598;28;20715;-77
2022/05/12 05:28:02;;;;;;;2.25;1.10;;;18.60;99.90;;;;;;4974762;28;20260;-73
2022/05/12 05:30:30;;;;;;;5.43;1.75;;;18.70;99.90;;;;;;4971953;28;20273;-74
2022/05/12 05:32:58;;;;;;;4.22;1.20;;;18.70;99.90;;;;;;4973000;28;20383;-76
2022/05/12 05:35:28;;;;;;;2.03;1.30;;;18.80;99.90;;;;;;4973494;28;20292;-76
2022/05/12 05:37:56;;;;;;;3.00;1.20;;;18.80;99.90;;;;;;4978360;28;20673;-73
2022/05/12 05:40:25;;;;;;;1.70;1.20;;;18.80;99.90;;;;;;4977265;28;20337;-76
2022/05/12 05:42:54;;;;;;;2.83;1.60;;;18.90;99.90;;;;;;4973738;28;20220;-74
2022/05/12 05:45:23;;;;;;;3.28;1.10;;;19.10;99.90;;;;;;4975447;28;20288;-73
2022/05/12 05:47:54;;;;;;;2.80;1.35;;;19.00;99.90;;;;;;4976434;28;20732;-75
2022/05/12 05:50:25;;;;;;;3.63;1.23;;;18.80;99.90;;;;;;4977732;28;20301;-74
2022/05/12 05:55:41;;;;;;;3.20;1.08;;;18.60;99.90;;;;;;4974534;28;20313;-75
2022/05/12 05:58:10;;;;;;;2.28;1.67;;;18.70;99.90;;;;;;4970162;28;20793;-75
2022/05/12 06:00:39;;;;;;;3.83;1.15;;;18.60;99.90;;;;;;4975299;28;20217;-74
2022/05/12 06:03:07;;;;;;;1.20;0.90;;;18.70;99.90;;;;;;4972317;28;20293;-75
2022/05/12 06:05:43;;;;;;;4.30;1.25;;;18.70;99.90;;;;;;4977301;28;20241;-73
2022/05/12 06:08:14;;;;;;;1.67;1.00;;;18.80;99.90;;;;;;4975629;28;20745;-75
2022/05/12 06:10:42;;;;;;;4.25;1.40;;;18.90;99.90;;;;;;4968803;28;20234;-73
2022/05/12 06:13:10;;;;;;;2.67;1.15;;;18.80;99.90;;;;;;4971715;28;20233;-76
2022/05/12 06:15:39;;;;;;;2.30;1.10;;;18.70;99.90;;;;;;4984896;28;20218;-72
2022/05/12 06:18:07;;;;;;;5.82;2.03;;;18.70;99.90;;;;;;4987095;28;20190;-73
2022/05/12 06:20:43;;;;;;;1.45;1.17;;;18.90;99.90;;;;;;4994637;28;20677;-70
2022/05/12 06:23:14;;;;;;;2.90;1.50;;;18.90;99.90;;;;;;4992295;28;20200;-74
2022/05/12 06:25:42;;;;;;;5.47;1.73;;;19.10;99.90;;;;;;4993675;28;20282;-74
2022/05/12 06:28:10;;;;;;;4.25;1.95;;;19.20;99.90;;;;;;4994278;28;20390;-74
2022/05/12 06:30:39;;;;;;;2.80;1.25;;;19.40;99.90;;;;;;4994112;28;20234;-75
2022/05/12 06:33:08;;;;;;;3.00;1.10;;;19.50;99.90;;;;;;4994312;28;20312;-73
2022/05/12 06:35:36;;;;;;;1.98;1.25;;;19.60;99.90;;;;;;4993503;28;20265;-73
2022/05/12 06:38:05;;;;;;;2.72;1.25;;;19.40;99.90;;;;;;4994046;28;20257;-73
2022/05/12 06:40:35;;;;;;;5.70;1.42;;;19.40;99.90;;;;;;4994070;28;20240;-73
2022/05/12 06:43:04;;;;;;;1.45;1.15;;;19.40;99.90;;;;;;4993406;28;20214;-74
2022/05/12 06:45:32;;;;;;;2.70;1.17;;;19.40;99.90;;;;;;4993437;28;20320;-72
2022/05/12 06:48:01;;;;;;;3.20;1.60;;;19.30;99.90;;;;;;4994159;28;20218;-73
2022/05/12 06:50:31;;;;;;;3.53;1.35;;;19.50;99.90;;;;;;4993899;28;20597;-74
2022/05/12 06:53:00;;;;;;;1.88;1.30;;;19.70;99.90;;;;;;4993007;28;20205;-75
2022/05/12 06:55:29;;;;;;;2.92;1.38;;;19.70;99.90;;;;;;4997850;28;20652;-75
2022/05/12 06:57:59;;;;;;;3.78;1.27;;;19.80;99.90;;;;;;4993368;28;20217;-74
2022/05/12 07:00:27;;;;;;;1.80;1.20;;;19.90;99.90;;;;;;4993681;28;20233;-74
2022/05/12 07:02:55;;;;;;;1.90;1.27;;;20.10;99.90;;;;;;4993192;28;20225;-76
2022/05/12 07:05:26;;;;;;;2.80;1.23;;;20.10;99.90;;;;;;4993612;28;20317;-74
2022/05/12 07:07:55;;;;;;;1.42;1.02;;;20.00;99.90;;;;;;4993570;28;20233;-74
2022/05/12 07:10:25;;;;;;;2.03;1.02;;;19.80;99.90;;;;;;4993417;28;20648;-75
2022/05/12 07:12:53;;;;;;;1.33;1.10;;;19.70;99.90;;;;;;4993204;28;20257;-76
2022/05/12 07:15:25;;;;;;;4.15;1.25;;;19.70;99.90;;;;;;4993380;28;20324;-73
2022/05/12 07:17:54;;;;;;;4.68;1.08;;;19.60;99.90;;;;;;4993422;28;20237;-73
2022/05/12 07:28:40;;;;;;;3.80;1.30;;;20.40;99.90;;;;;;4993052;28;20689;-76
2022/05/12 07:31:10;;;;;;;2.78;1.38;;;20.60;99.70;;;;;;4993168;28;20260;-76
2022/05/12 07:33:40;;;;;;;4.38;1.40;;;20.70;99.90;;;;;;4986295;28;20210;-75
2022/05/12 07:36:11;;;;;;;6.00;1.35;;;20.80;99.90;;;;;;4986318;28;20297;-74
2022/05/12 07:38:39;;;;;;;2.50;1.40;;;20.60;99.70;;;;;;4986972;28;20271;-75
2022/05/12 07:41:09;;;;;;;2.15;1.42;;;20.50;99.40;;;;;;4993102;28;20202;-74
2022/05/12 07:43:38;;;;;;;2.50;1.27;;;20.70;99.90;;;;;;4992109;28;20230;-73
2022/05/12 07:46:07;;;;;;;4.20;1.20;;;21.00;99.90;;;;;;4992282;28;20230;-74
2022/05/12 07:48:36;;;;;;;3.47;1.50;;;21.50;99.90;;;;;;4992936;28;20240;-74
2022/05/12 07:51:04;;;;;;;3.20;1.20;;;21.80;98.70;;;;;;4990474;28;20248;-73
2022/05/12 07:53:32;;;;;;;2.92;1.27;;;21.90;97.70;;;;;;4991709;28;20737;-73
2022/05/12 07:56:01;;;;;;;3.47;1.38;;;21.80;98.00;;;;;;4996747;28;20218;-74
2022/05/12 07:58:29;;;;;;;3.30;1.30;;;21.70;98.00;;;;;;4992401;28;20212;-73
2022/05/12 08:00:57;;;;;;;3.53;1.35;;;21.70;98.10;;;;;;4992297;28;20326;-73
2022/05/12 08:03:26;;;;;;;1.45;1.10;;;21.70;98.10;;;;;;4991833;28;20581;-72
2022/05/12 08:05:58;;;;;;;3.08;1.73;;;21.70;98.10;;;;;;4992152;28;20308;-73
2022/05/12 08:08:26;;;;;;;1.52;1.40;;;21.70;98.30;;;;;;4992372;28;20233;-73
2022/05/12 08:10:54;;;;;;;3.92;1.65;;;21.70;97.80;;;;;;4992194;28;20214;-74
2022/05/12 08:13:23;;;;;;;4.93;2.28;;;21.80;98.10;;;;;;4991782;28;20197;-73
2022/05/12 08:15:53;;;;;;;3.80;1.23;;;22.00;98.20;;;;;;4992002;28;20249;-74
2022/05/12 08:18:23;;;;;;;2.53;1.02;;;21.80;96.80;;;;;;4992178;28;20237;-73
2022/05/12 08:20:52;;;;;;;3.35;1.35;;;21.80;96.90;;;;;;4991320;28;20221;-73
2022/05/12 08:23:22;;;;;;;4.63;1.50;;;22.00;97.60;;;;;;4990817;28;20246;-76
2022/05/12 08:25:50;;;;;;;2.70;0.95;;;22.10;96.90;;;;;;4991855;28;20349;-72
2022/05/12 08:28:25;;;;;;;1.40;1.10;;;22.30;96.80;;;;;;4992203;28;20217;-73
2022/05/12 08:30:54;;;;;;;2.35;1.05;;;22.30;96.60;;;;;;4992106;28;20230;-73
2022/05/12 08:33:23;;;;;;;2.97;1.30;;;22.20;95.80;;;;;;4991075;28;20244;-73
2022/05/12 08:35:51;;;;;;;2.25;1.25;;;22.30;97.00;;;;;;4991333;28;20304;-75
2022/05/12 08:38:21;;;;;;;2.03;1.50;;;22.50;95.70;;;;;;4991335;28;20269;-73
2022/05/12 08:40:58;;;;;;;2.50;1.08;;;22.50;96.50;;;;;;4991898;28;20260;-74
2022/05/12 08:43:34;;;;;;;2.72;1.20;;;22.70;95.80;;;;;;4991315;28;20201;-72
2022/05/12 08:46:05;;;;;;;2.83;1.52;;;22.90;95.40;;;;;;4985719;28;20284;-73
2022/05/12 08:48:34;;;;;;;2.20;1.20;;;23.20;94.90;;;;;;4991721;28;20229;-72
2022/05/12 08:51:03;;;;;;;3.80;1.27;;;23.30;94.40;;;;;;4991662;28;20212;-75
2022/05/12 08:53:43;;;;;;;1.85;1.00;;;23.40;94.20;;;;;;4987733;28;20209;-73
2022/05/12 08:56:13;;;;;;;6.90;1.30;;;23.60;94.00;;;;;;4986188;28;20225;-73
2022/05/12 08:58:42;;;;;;;2.90;1.33;;;23.90;93.90;;;;;;4991471;28;20198;-73
2022/05/12 09:01:17;;;;;;;2.05;1.10;;;23.80;94.10;;;;;;4991831;28;20390;-73
2022/05/12 09:03:58;;;;;;;2.20;1.20;;;24.20;93.90;;;;;;4991138;28;20599;-73
2022/05/12 09:06:31;;;;;;;3.40;1.17;;;24.30;93.10;;;;;;4991168;28;20718;-73
2022/05/12 09:09:09;;;;;;;2.83;1.33;;;24.30;93.50;;;;;;4991363;28;20285;-74
2022/05/12 09:11:45;;;;;;;2.85;1.20;;;24.50;93.10;;;;;;4991739;28;20201;-73
2022/05/12 09:14:17;;;;;;;4.80;1.38;;;24.50;92.70;;;;;;4990995;28;20240;-73
2022/05/12 09:16:50;;;;;;;3.10;1.23;;;24.00;92.30;;;;;;4991194;28;20229;-70
2022/05/12 09:19:19;;;;;;;4.10;1.33;;;23.50;92.60;;;;;;4991501;28;20320;-74
2022/05/12 09:21:47;;;;;;;3.03;0.98;;;23.40;93.80;;;;;;4991686;28;20260;-73
2022/05/12 09:24:17;;;;;;;3.90;1.42;;;23.20;93.80;;;;;;4990521;28;20202;-73
2022/05/12 09:26:46;;;;;;;2.15;1.10;;;23.50;94.30;;;;;;4990789;28;20245;-73
2022/05/12 09:29:21;;;;;;;2.80;1.20;;;23.70;93.40;;;;;;4991564;28;20252;-73
2022/05/12 09:31:51;;;;;;;4.13;1.30;;;23.70;93.50;;;;;;4991285;28;20671;-73
2022/05/12 09:34:31;;;;;;;1.35;1.13;;;23.60;92.80;;;;;;4990971;28;20210;-73
2022/05/12 09:37:16;;;;;;;5.03;1.20;;;23.50;93.40;;;;;;4991232;28;20233;-73
2022/05/12 09:39:47;;;;;;;3.92;1.75;;;23.20;94.10;;;;;;4991404;28;20256;-73
2022/05/12 09:42:36;;;;;;;3.60;1.33;;;23.20;94.10;;;;;;4990578;28;20209;-72
2022/05/12 09:45:08;;;;;;;3.30;1.50;;;23.10;94.00;;;;;;4991155;28;20277;-72
2022/05/12 09:47:36;;;;;;;5.05;1.20;;;23.00;94.00;;;;;;4990869;28;20226;-73
2022/05/12 09:50:20;;;;;;;3.83;1.27;;;23.00;93.90;;;;;;4996582;28;20245;-73
2022/05/12 09:52:58;;;;;;;3.70;1.50;;;23.10;93.80;;;;;;4995309;28;20747;-73
2022/05/12 09:55:30;;;;;;;4.75;1.35;;;23.50;93.60;;;;;;4994427;28;20245;-74
2022/05/12 09:58:00;;;;;;;1.42;1.00;;;23.90;93.50;;;;;;4994691;28;20260;-73
2022/05/12 10:00:39;;;;;;;2.60;0.85;;;24.30;92.10;;;;;;4994688;28;20256;-73
2022/05/12 10:09:08;;;;;;;2.28;0.80;;;25.50;89.70;;;;;;4994344;28;20246;-73
2022/05/12 10:11:48;;;;;;;2.80;1.20;;;25.80;91.20;;;;;;4988357;28;20204;-74
2022/05/12 10:14:30;;;;;;;3.70;0.90;;;25.80;89.40;;;;;;4994238;28;20210;-74
2022/05/12 10:17:01;;;;;;;1.50;1.00;;;25.60;89.20;;;;;;4994265;28;20259;-73
2022/05/12 10:19:29;;;;;;;1.83;1.10;;;25.50;89.10;;;;;;4994487;28;20719;-74
2022/05/12 10:22:08;;;;;;;3.10;1.00;;;24.80;90.10;;;;;;4993973;28;20206;-72
2022/05/12 10:24:45;;;;;;;1.25;0.80;;;24.40;90.20;;;;;;4991407;28;20267;-75
2022/05/12 10:27:19;;;;;;;3.92;1.00;;;24.40;90.20;;;;;;4988345;28;20722;-72
2022/05/12 10:29:58;;;;;;;1.55;1.25;;;24.70;90.60;;;;;;4994423;28;20637;-73
2022/05/12 10:32:40;;;;;;;2.75;1.35;;;25.20;91.00;;;;;;4993409;28;20284;-73
2022/05/12 10:35:14;;;;;;;2.88;1.13;;;25.70;89.80;;;;;;4993680;28;20205;-75
2022/05/12 10:37:54;;;;;;;3.05;1.10;;;26.00;90.10;;;;;;4994402;28;20257;-74
2022/05/12 10:40:31;;;;;;;2.25;0.93;;;26.60;90.10;;;;;;4994256;28;20202;-75
2022/05/12 10:43:13;;;;;;;3.47;1.20;;;27.00;88.30;;;;;;4993207;28;20202;-73
2022/05/12 10:45:48;;;;;;;5.20;1.45;;;27.10;85.60;;;;;;4994296;28;20288;-74
2022/05/12 10:48:33;;;;;;;4.03;1.27;;;26.90;86.30;;;;;;4993960;28;20594;-74
2022/05/12 10:51:03;;;;;;;3.08;0.80;;;27.00;85.00;;;;;;4994088;28;20260;-74
2022/05/12 10:53:50;;;;;;;3.88;0.90;;;26.90;84.50;;;;;;4987233;28;20732;-74
2022/05/12 10:56:30;;;;;;;3.30;0.90;;;26.70;85.60;;;;;;4993053;28;20226;-73
2022/05/12 10:59:14;;;;;;;3.75;0.90;;;27.20;83.90;;;;;;4993627;28;20248;-73
2022/05/12 11:01:48;;;;;;;3.25;0.90;;;27.70;83.20;;;;;;4993093;28;20229;-73
2022/05/12 11:04:20;;;;;;;3.58;0.85;;;27.60;82.80;;;;;;4987657;28;20705;-74
2022/05/12 11:06:54;;;;;;;2.80;0.95;;;27.70;83.50;;;;;;4993454;28;20237;-74
2022/05/12 11:09:25;;;;;;;4.20;1.08;;;27.70;82.60;;;;;;4993487;28;20253;-76
2022/05/12 11:11:57;;;;;;;2.00;0.95;;;28.10;83.00;;;;;;4992120;28;20209;-75
2022/05/12 11:14:33;;;;;;;1.92;0.80;;;28.50;82.30;;;;;;4993540;28;20202;-70
2022/05/12 11:17:07;;;;;;;3.28;1.00;;;28.40;80.80;;;;;;4993406;28;20300;-74
2022/05/12 11:19:37;;;;;;;1.65;0.90;;;28.20;81.40;;;;;;4993359;28;20205;-72
2022/05/12 11:22:13;;;;;;;1.83;0.88;;;28.30;82.00;;;;;;4992521;28;20217;-73
2022/05/12 11:24:50;;;;;;;2.80;1.13;;;28.40;80.50;;;;;;4989155;28;20263;-74
2022/05/12 11:27:33;;;;;;;1.30;0.82;;;28.70;80.20;;;;;;4987440;28;20276;-73
2022/05/12 11:30:28;;;;;;;1.60;0.68;;;28.20;78.80;;;;;;4993120;28;20276;-75
2022/05/12 11:33:06;;;;;;;2.75;0.98;;;28.50;80.00;;;;;;4992371;28;20245;-73
2022/05/12 11:35:39;;;;;;;1.80;0.95;;;28.60;78.80;;;;;;4992794;28;20280;-73
2022/05/12 11:38:10;;;;;;;1.17;0.70;;;29.00;79.80;;;;;;4993086;28;20233;-73
2022/05/12 11:40:50;;;;;;;2.47;0.82;;;28.90;77.90;;;;;;4992882;28;20206;-76
2022/05/12 11:46:49;;;;;;;3.13;1.00;;;28.70;77.20;;;;;;4989310;28;20312;-73
2022/05/12 11:49:42;;;;;;;1.50;0.70;;;28.60;78.00;;;;;;4992668;28;20222;-73
2022/05/12 11:52:27;;;;;;;5.05;0.90;;;28.90;77.90;;;;;;4991903;28;20234;-74
2022/05/12 11:54:58;;;;;;;3.47;0.80;;;29.20;76.00;;;;;;4986460;28;20210;-75
2022/05/12 11:57:29;;;;;;;1.30;0.80;;;29.70;75.90;;;;;;4992639;28;20229;-74
2022/05/12 11:59:58;;;;;;;1.63;0.80;;;29.50;74.70;;;;;;4992454;28;20671;-74
2022/05/12 12:02:49;;;;;;;4.80;0.80;;;29.30;74.40;;;;;;4991480;28;20202;-72
2022/05/12 12:05:54;;;;;;;3.70;1.08;;;29.00;75.50;;;;;;4992726;28;20276;-73
2022/05/12 12:08:45;;;;;;;2.30;1.30;;;29.00;77.20;;;;;;4991854;28;20579;-73
2022/05/12 12:11:26;;;;;;;2.25;1.15;;;29.10;75.00;;;;;;4992259;28;20206;-74
2022/05/12 12:13:55;;;;;;;2.25;0.90;;;29.30;76.10;;;;;;4991020;28;20750;-74
2022/05/12 12:16:25;;;;;;;2.17;1.00;;;29.20;74.00;;;;;;4991806;28;20542;-74
2022/05/12 12:19:07;;;;;;;2.28;0.80;;;29.00;73.90;;;;;;4985793;28;20205;-72
2022/05/12 12:21:40;;;;;;;1.17;0.70;;;29.30;73.70;;;;;;4993191;28;20233;-73
2022/05/12 12:24:26;;;;;;;1.23;0.80;;;29.50;74.50;;;;;;4988598;28;20634;-74
2022/05/12 12:26:58;;;;;;;1.10;1.00;;;29.30;74.90;;;;;;4991388;28;20261;-73
2022/05/12 12:29:42;;;;;;;1.60;1.00;;;29.00;75.60;;;;;;4992044;28;20218;-73
2022/05/12 12:32:27;;;;;;;2.55;0.80;;;29.20;73.60;;;;;;4991227;28;20762;-73
2022/05/12 12:35:06;;;;;;;3.60;0.70;;;29.40;72.90;;;;;;4991957;28;20205;-74
2022/05/12 12:37:43;;;;;;;4.10;1.25;;;29.50;75.70;;;;;;4991439;28;20297;-74
2022/05/12 12:40:43;;;;;;;1.40;0.90;;;29.80;72.60;;;;;;4991760;28;20256;-73
2022/05/12 12:43:18;;;;;;;2.75;1.10;;;29.90;71.30;;;;;;4991055;28;20213;-74
2022/05/12 12:45:49;;;;;;;3.08;0.80;;;29.60;72.90;;;;;;4986883;28;20596;-74
2022/05/12 12:48:21;;;;;;;4.40;1.10;;;29.80;71.70;;;;;;4990105;28;20206;-74
2022/05/12 12:50:53;;;;;;;1.55;0.95;;;30.00;73.10;;;;;;4991890;28;20293;-74
2022/05/12 12:56:35;;;;;;;3.92;1.35;;;28.70;73.10;;;;;;4991005;28;20225;-73
2022/05/12 12:59:06;;;;;;;3.25;1.13;;;28.00;72.80;;;;;;4991544;28;20201;-73
2022/05/12 13:01:47;;;;;;;2.88;0.80;;;28.30;74.20;;;;;;4991672;28;20630;-73
2022/05/12 13:04:20;;;;;;;2.70;0.93;;;29.20;73.60;;;;;;4986000;28;20209;-71
2022/05/12 13:06:53;;;;;;;2.38;0.80;;;29.80;73.70;;;;;;4989954;28;20257;-74
2022/05/12 13:09:27;;;;;;;2.40;1.10;;;30.30;73.30;;;;;;4991131;28;20222;-74
2022/05/12 13:12:10;;;;;;;1.75;0.85;;;30.70;72.30;;;;;;4991104;28;20255;-71
2022/05/12 13:14:41;;;;;;;1.70;0.80;;;31.20;72.40;;;;;;4991937;28;20236;-74
2022/05/12 13:17:18;;;;;;;1.35;0.90;;;31.30;70.10;;;;;;4991641;28;20639;-74
2022/05/12 13:19:46;;;;;;;2.22;1.23;;;31.40;68.60;;;;;;4985784;28;20201;-73
2022/05/12 13:22:24;;;;;;;1.73;0.80;;;31.20;67.60;;;;;;4990490;28;20345;-72
2022/05/12 13:24:53;;;;;;;1.88;1.00;;;30.80;69.50;;;;;;4994568;28;20248;-74
2022/05/12 13:27:25;;;;;;;1.73;0.95;;;30.50;68.80;;;;;;4995028;28;20213;-75
2022/05/12 13:29:53;;;;;;;2.85;0.85;;;30.30;69.30;;;;;;4996888;28;20391;-73
2022/05/12 13:32:35;;;;;;;6.78;1.13;;;29.60;69.30;;;;;;4994513;28;20259;-73
2022/05/12 13:35:15;;;;;;;1.88;1.10;;;30.20;69.90;;;;;;4995204;28;20289;-73
2022/05/12 13:37:52;;;;;;;1.80;1.20;;;30.70;69.20;;;;;;4995002;28;20210;-73
2022/05/12 13:40:43;;;;;;;3.67;1.10;;;30.50;69.50;;;;;;4995108;28;20340;-73